createdAt,value
2022-08-14T00:02:27.298Z,20.05
2022-08-14T00:04:56.389Z,20.03
2022-08-14T00:07:26.359Z,20.02
2022-08-14T00:10:50.257Z,20.01
2022-08-14T00:12:56.307Z,19.99
2022-08-14T00:15:43.579Z,19.94
2022-08-14T00:18:30.939Z,19.99
2022-08-14T00:21:04.915Z,20.03
2022-08-14T00:23:40.253Z,20.01
2022-08-14T00:26:21.648Z,19.97
2022-08-14T00:28:53.472Z,19.89
2022-08-14T00:31:23.115Z,19.86
2022-08-14T00:34:36.120Z,19.84
2022-08-14T00:36:51.846Z,19.82
2022-08-14T00:39:21.776Z,19.78
2022-08-14T00:41:50.106Z,19.76
2022-08-14T00:44:27.518Z,19.74
2022-08-14T00:47:10.868Z,19.65
2022-08-14T00:49:42.978Z,19.65
2022-08-14T00:52:18.150Z,19.62
2022-08-14T00:54:58.089Z,19.48
2022-08-14T00:57:31.392Z,19.46
2022-08-14T01:00:02.266Z,19.51
2022-08-14T01:02:31.871Z,19.56
2022-08-14T01:05:01.451Z,19.68
2022-08-14T01:07:38.841Z,19.65
2022-08-14T01:13:03.888Z,19.68
2022-08-14T01:15:58.461Z,19.69
2022-08-14T01:18:40.028Z,19.72
2022-08-14T01:21:17.398Z,19.60
2022-08-14T01:23:53.912Z,19.34
2022-08-14T01:26:35.157Z,19.27
2022-08-14T01:29:07.222Z,19.26
2022-08-14T01:31:55.414Z,19.18
2022-08-14T01:35:20.041Z,19.01
2022-08-14T01:37:16.516Z,18.80
2022-08-14T01:39:47.168Z,18.78
2022-08-14T01:42:31.044Z,18.69
2022-08-14T01:45:00.737Z,18.74
2022-08-14T01:47:37.086Z,18.81
2022-08-14T01:50:08.061Z,18.82
2022-08-14T01:52:58.743Z,18.88
2022-08-14T01:55:32.476Z,18.81
2022-08-14T01:58:20.157Z,18.76
2022-08-14T02:00:55.716Z,18.67
2022-08-14T02:03:30.870Z,18.60
2022-08-14T02:06:04.153Z,18.56
2022-08-14T02:08:53.234Z,18.56
2022-08-14T02:11:29.105Z,18.54
2022-08-14T02:14:07.928Z,18.49
2022-08-14T02:16:41.539Z,18.46
2022-08-14T02:19:14.977Z,18.59
2022-08-14T02:21:48.768Z,18.59
2022-08-14T02:24:39.554Z,18.51
2022-08-14T02:28:24.608Z,18.54
2022-08-14T02:30:02.686Z,18.55
2022-08-14T02:32:37.256Z,18.65
2022-08-14T02:35:11.518Z,18.68
2022-08-14T02:37:48.014Z,18.60
2022-08-14T02:40:32.548Z,18.47
2022-08-14T02:43:03.838Z,18.55
2022-08-14T02:45:38.842Z,18.52
2022-08-14T02:49:03.760Z,18.57
2022-08-14T02:51:07.233Z,18.68
2022-08-14T02:53:45.477Z,18.52
2022-08-14T02:56:30.515Z,18.48
2022-08-14T02:59:08.225Z,18.36
2022-08-14T03:01:50.546Z,18.33
2022-08-14T03:04:20.586Z,18.24
2022-08-14T03:07:06.705Z,18.23
2022-08-14T03:10:27.041Z,18.18
2022-08-14T03:12:32.863Z,18.18
2022-08-14T03:15:14.170Z,18.22
2022-08-14T03:17:57.047Z,18.21
2022-08-14T03:20:30.338Z,18.28
2022-08-14T03:23:03.043Z,18.43
2022-08-14T03:25:37.786Z,18.49
2022-08-14T03:28:14.932Z,18.46
2022-08-14T03:31:00.114Z,18.29
2022-08-14T03:33:37.890Z,18.11
2022-08-14T03:39:09.188Z,17.76
2022-08-14T03:39:12.878Z,17.71
2022-08-14T03:41:44.497Z,17.72
2022-08-14T03:45:28.012Z,17.73
2022-08-14T03:47:03.196Z,17.79
2022-08-14T03:49:34.352Z,17.84
2022-08-14T03:52:18.187Z,17.75
2022-08-14T03:54:55.640Z,17.81
2022-08-14T03:57:24.422Z,17.88
2022-08-14T03:59:52.636Z,17.92
2022-08-14T04:02:33.122Z,17.95
2022-08-14T04:05:12.797Z,17.97
2022-08-14T04:07:49.652Z,18.03
2022-08-14T04:10:31.864Z,17.98
2022-08-14T04:13:06.166Z,18.04
2022-08-14T04:15:56.077Z,18.08
2022-08-14T04:18:23.540Z,18.02
2022-08-14T04:20:54.347Z,17.99
2022-08-14T04:23:29.814Z,18.02
2022-08-14T04:26:08.064Z,18.14
2022-08-14T04:29:01.962Z,18.14
2022-08-14T04:33:10.695Z,18.14
2022-08-14T04:34:20.905Z,18.19
2022-08-14T04:37:11.220Z,18.23
2022-08-14T04:39:58.171Z,18.19
2022-08-14T04:42:47.138Z,18.29
2022-08-14T04:45:41.367Z,18.54
2022-08-14T04:48:39.345Z,18.76
2022-08-14T04:51:11.467Z,18.77
2022-08-14T04:53:43.714Z,18.71
2022-08-14T04:56:30.456Z,18.78
2022-08-14T04:59:10.679Z,18.81
2022-08-14T05:01:49.802Z,18.92
2022-08-14T05:04:21.171Z,19.06
2022-08-14T05:06:56.251Z,19.15
2022-08-14T05:09:29.298Z,19.21
2022-08-14T05:12:58.506Z,19.25
2022-08-14T05:14:54.841Z,19.15
2022-08-14T05:17:32.240Z,19.18
2022-08-14T05:21:54.942Z,19.26
2022-08-14T05:23:04.191Z,19.41
2022-08-14T05:25:34.257Z,19.64
2022-08-14T05:28:23.038Z,19.80
2022-08-14T05:31:01.774Z,19.92
2022-08-14T05:33:33.188Z,19.76
2022-08-14T05:36:06.224Z,19.74
2022-08-14T05:38:47.398Z,19.65
2022-08-14T05:41:20.203Z,19.54
2022-08-14T05:43:51.180Z,19.52
2022-08-14T05:46:26.295Z,19.73
2022-08-14T05:48:57.457Z,19.91
2022-08-14T05:51:27.362Z,20.11
2022-08-14T05:54:01.549Z,20.38
2022-08-14T05:56:41.407Z,20.60
2022-08-14T05:59:10.493Z,20.79
2022-08-14T06:01:39.387Z,20.90
2022-08-14T06:04:07.617Z,20.90
2022-08-14T06:06:38.444Z,20.86
2022-08-14T06:09:09.734Z,20.83
2022-08-14T06:11:38.454Z,20.79
2022-08-14T06:14:20.979Z,20.85
2022-08-14T06:16:54.813Z,20.97
2022-08-14T06:19:23.564Z,21.22
2022-08-14T06:21:59.063Z,21.48
2022-08-14T06:24:30.501Z,21.76
2022-08-14T06:27:06.454Z,22.04
2022-08-14T06:29:39.241Z,22.35
2022-08-14T06:32:36.941Z,22.59
2022-08-14T06:35:02.225Z,22.85
2022-08-14T06:37:52.544Z,23.02
2022-08-14T06:40:27.154Z,23.18
2022-08-14T06:43:00.567Z,23.34
2022-08-14T06:45:33.560Z,23.50
2022-08-14T06:48:02.791Z,24.15
2022-08-14T06:50:34.628Z,25.34
2022-08-14T06:53:02.814Z,26.61
2022-08-14T06:55:33.860Z,27.54
2022-08-14T06:58:05.875Z,28.08
2022-08-14T07:01:11.691Z,29.81
2022-08-14T07:03:59.198Z,31.59
2022-08-14T07:06:46.679Z,31.83
2022-08-14T07:09:22.416Z,30.66
2022-08-14T07:11:52.833Z,29.60
2022-08-14T07:14:23.947Z,29.49
2022-08-14T07:16:52.361Z,29.75
2022-08-14T07:19:21.093Z,30.33
2022-08-14T07:21:50.279Z,30.65
2022-08-14T07:24:26.428Z,31.00
2022-08-14T07:26:59.880Z,30.32
2022-08-14T07:29:28.836Z,29.87
2022-08-14T07:31:57.540Z,29.77
2022-08-14T07:34:35.977Z,29.91
2022-08-14T07:37:05.863Z,29.81
2022-08-14T07:39:34.579Z,29.58
2022-08-14T07:42:03.556Z,29.07
2022-08-14T07:44:45.878Z,29.39
2022-08-14T07:47:16.552Z,29.68
2022-08-14T07:49:56.982Z,29.69
2022-08-14T07:52:30.266Z,29.67
2022-08-14T07:55:01.437Z,30.07
2022-08-14T07:57:29.641Z,30.17
2022-08-14T07:59:57.950Z,30.71
2022-08-14T08:02:32.635Z,32.13
2022-08-14T08:05:05.450Z,33.73
2022-08-14T08:07:34.272Z,34.99
2022-08-14T08:10:31.402Z,33.65
2022-08-14T08:13:24.473Z,32.73
2022-08-14T08:15:56.713Z,33.76
2022-08-14T08:18:29.237Z,35.33
2022-08-14T08:21:00.252Z,35.76
2022-08-14T08:23:43.608Z,36.30
2022-08-14T08:26:18.798Z,36.18
2022-08-14T08:28:59.139Z,35.73
2022-08-14T08:31:32.989Z,35.47
2022-08-14T08:34:06.483Z,35.59
2022-08-14T08:36:42.045Z,34.84
2022-08-14T08:39:22.057Z,34.45
2022-08-14T08:41:53.770Z,34.98
2022-08-14T08:44:31.613Z,34.33
2022-08-14T08:47:07.840Z,34.09
2022-08-14T08:49:52.685Z,33.67
2022-08-14T08:52:32.118Z,33.14
2022-08-14T08:55:04.899Z,32.98
2022-08-14T08:57:37.906Z,32.80
2022-08-14T09:00:25.243Z,32.65
2022-08-14T09:03:10.015Z,32.20
2022-08-14T09:05:54.082Z,32.10
2022-08-14T09:08:31.528Z,31.72
2022-08-14T09:11:18.890Z,31.70
2022-08-14T09:13:51.613Z,31.65
2022-08-14T09:16:26.102Z,31.68
2022-08-14T09:18:57.519Z,31.62
2022-08-14T09:21:31.068Z,31.66
2022-08-14T09:24:28.678Z,31.81
2022-08-14T09:26:50.069Z,31.82
2022-08-14T09:29:22.719Z,31.86
2022-08-14T09:31:57.553Z,31.94
2022-08-14T09:34:59.123Z,32.20
2022-08-14T09:37:34.172Z,31.90
2022-08-14T09:40:29.472Z,32.09
2022-08-14T09:43:06.314Z,32.08
2022-08-14T09:45:52.462Z,31.89
2022-08-14T09:48:30.587Z,31.98
2022-08-14T09:54:18.257Z,31.69
2022-08-14T09:56:51.687Z,32.03
2022-08-14T09:59:27.969Z,32.02
2022-08-14T10:01:57.456Z,32.12
2022-08-14T10:04:33.078Z,32.08
2022-08-14T10:07:08.576Z,32.22
2022-08-14T10:10:00.234Z,32.60
2022-08-14T10:12:53.193Z,32.47
2022-08-14T10:15:26.404Z,32.20
2022-08-14T10:18:18.468Z,32.18
2022-08-14T10:21:00.898Z,32.32
2022-08-14T10:23:43.087Z,32.49
2022-08-14T10:26:23.108Z,32.46
2022-08-14T10:29:19.253Z,32.39
2022-08-14T10:31:59.448Z,32.62
2022-08-14T10:34:36.965Z,32.48
2022-08-14T10:37:15.093Z,32.26
2022-08-14T10:39:51.290Z,32.43
2022-08-14T10:42:39.037Z,32.44
2022-08-14T10:45:22.262Z,32.84
2022-08-14T10:48:08.704Z,32.82
2022-08-14T10:50:49.304Z,32.74
2022-08-14T10:53:29.294Z,32.67
2022-08-14T10:56:06.840Z,32.91
2022-08-14T10:59:00.108Z,32.91
2022-08-14T11:01:38.477Z,33.11
2022-08-14T11:04:25.848Z,33.21
2022-08-14T11:06:56.867Z,33.37
2022-08-14T11:09:26.194Z,33.55
2022-08-14T11:12:35.104Z,33.26
2022-08-14T11:15:01.914Z,33.30
2022-08-14T11:17:36.231Z,33.06
2022-08-14T11:20:13.879Z,33.33
2022-08-14T11:22:55.915Z,33.05
2022-08-14T11:25:43.598Z,32.93
2022-08-14T11:28:19.145Z,33.26
2022-08-14T11:30:53.768Z,33.65
2022-08-14T11:33:31.110Z,33.93
2022-08-14T11:36:02.419Z,33.82
2022-08-14T11:38:44.916Z,33.82
2022-08-14T11:41:17.090Z,33.71
2022-08-14T11:43:56.046Z,34.05
2022-08-14T11:46:30.679Z,34.37
2022-08-14T11:49:06.540Z,33.40
2022-08-14T11:51:54.282Z,34.03
2022-08-14T11:54:34.986Z,34.06
2022-08-14T11:57:05.178Z,34.59
2022-08-14T11:59:34.185Z,34.75
2022-08-14T12:03:03.319Z,34.82
2022-08-14T12:05:09.376Z,34.85
2022-08-14T12:07:49.651Z,34.60
2022-08-14T12:10:27.145Z,34.54
2022-08-14T12:13:14.027Z,34.44
2022-08-14T12:15:59.067Z,33.91
2022-08-14T12:18:35.988Z,33.90
2022-08-14T12:21:19.115Z,33.18
2022-08-14T12:24:00.505Z,33.11
2022-08-14T12:26:39.378Z,33.45
2022-08-14T12:29:14.489Z,33.75
2022-08-14T12:31:47.117Z,33.87
2022-08-14T12:34:20.399Z,34.08
2022-08-14T12:37:02.420Z,34.03
2022-08-14T12:39:30.667Z,33.74
2022-08-14T12:42:11.835Z,33.97
2022-08-14T12:44:58.685Z,34.21
2022-08-14T12:47:31.329Z,34.54
2022-08-14T12:50:00.279Z,34.86
2022-08-14T12:52:43.177Z,35.06
2022-08-14T12:55:22.267Z,35.50
2022-08-14T12:57:53.499Z,35.59
2022-08-14T13:00:25.448Z,35.49
2022-08-14T13:02:56.642Z,35.53
2022-08-14T13:05:29.109Z,35.14
2022-08-14T13:07:59.681Z,35.34
2022-08-14T13:10:47.102Z,35.06
2022-08-14T13:13:20.596Z,34.61
2022-08-14T13:15:55.937Z,34.83
2022-08-14T13:18:28.065Z,34.82
2022-08-14T13:21:01.025Z,34.52
2022-08-14T13:23:36.386Z,34.03
2022-08-14T13:26:06.898Z,33.45
2022-08-14T13:29:00.548Z,33.57
2022-08-14T13:31:34.349Z,33.68
2022-08-14T13:34:05.380Z,33.66
2022-08-14T13:36:54.454Z,33.87
2022-08-14T13:39:24.551Z,34.06
2022-08-14T13:41:55.602Z,34.03
2022-08-14T13:44:27.619Z,33.81
2022-08-14T13:46:55.879Z,34.03
2022-08-14T13:49:24.470Z,33.96
2022-08-14T13:51:58.547Z,33.59
2022-08-14T13:54:31.176Z,33.82
2022-08-14T13:57:03.639Z,33.88
2022-08-14T13:59:38.002Z,33.82
2022-08-14T14:02:08.737Z,34.21
2022-08-14T14:04:46.181Z,34.49
2022-08-14T14:07:24.107Z,35.17
2022-08-14T14:10:08.235Z,34.93
2022-08-14T14:12:41.426Z,34.75
2022-08-14T14:15:14.492Z,34.28
2022-08-14T14:17:47.852Z,34.23
2022-08-14T14:20:35.108Z,34.14
2022-08-14T14:23:11.765Z,33.76
2022-08-14T14:25:46.127Z,33.60
2022-08-14T14:28:24.591Z,33.15
2022-08-14T14:30:57.437Z,33.08
2022-08-14T14:33:49.537Z,32.93
2022-08-14T14:36:25.022Z,32.95
2022-08-14T14:38:58.187Z,32.79
2022-08-14T14:41:38.042Z,32.32
2022-08-14T14:44:09.528Z,32.01
2022-08-14T14:46:50.823Z,32.07
2022-08-14T14:49:21.913Z,32.06
2022-08-14T14:51:51.537Z,31.89
2022-08-14T14:54:31.143Z,31.94
2022-08-14T14:57:02.499Z,31.89
2022-08-14T14:59:33.468Z,31.92
2022-08-14T15:02:07.773Z,31.90
2022-08-14T15:04:38.705Z,31.75
2022-08-14T15:07:12.631Z,31.62
2022-08-14T15:09:41.427Z,31.53
2022-08-14T15:12:34.619Z,31.40
2022-08-14T15:15:08.957Z,31.17
2022-08-14T15:17:42.020Z,31.09
2022-08-14T15:20:17.516Z,31.04
2022-08-14T15:23:00.947Z,31.12
2022-08-14T15:25:37.084Z,31.07
2022-08-14T15:28:12.596Z,31.06
2022-08-14T15:30:42.706Z,31.00
2022-08-14T15:33:14.321Z,30.89
2022-08-14T15:35:44.998Z,30.89
2022-08-14T15:38:17.616Z,31.00
2022-08-14T15:40:51.729Z,31.06
2022-08-14T15:43:27.417Z,30.98
2022-08-14T15:46:07.362Z,30.83
2022-08-14T15:48:55.811Z,30.65
2022-08-14T15:51:28.258Z,30.68
2022-08-14T15:54:02.355Z,30.69
2022-08-14T15:56:42.350Z,30.73
2022-08-14T15:59:13.274Z,30.84
2022-08-14T16:01:54.307Z,30.92
2022-08-14T16:04:23.974Z,30.96
2022-08-14T16:06:54.737Z,30.97
2022-08-14T16:09:26.955Z,30.80
2022-08-14T16:11:55.556Z,30.71
2022-08-14T16:14:24.332Z,30.79
2022-08-14T16:17:00.640Z,30.81
2022-08-14T16:19:39.828Z,30.87
2022-08-14T16:22:59.054Z,30.89
2022-08-14T16:25:04.035Z,30.92
2022-08-14T16:27:41.232Z,30.89
2022-08-14T16:30:24.652Z,30.89
2022-08-14T16:32:56.965Z,30.93
2022-08-14T16:35:42.291Z,30.96
2022-08-14T16:38:45.668Z,30.86
2022-08-14T16:41:17.478Z,30.87
2022-08-14T16:43:48.619Z,30.85
2022-08-14T16:46:22.035Z,30.87
2022-08-14T16:48:57.188Z,30.95
2022-08-14T16:51:34.808Z,30.91
2022-08-14T16:54:33.769Z,30.86
2022-08-14T16:57:16.051Z,30.76
2022-08-14T16:59:57.397Z,30.61
2022-08-14T17:02:38.890Z,30.54
2022-08-14T17:05:16.832Z,30.51
2022-08-14T17:08:07.317Z,30.40
2022-08-14T17:11:02.199Z,30.35
2022-08-14T17:13:59.775Z,30.30
2022-08-14T17:16:37.183Z,30.19
2022-08-14T17:19:13.693Z,30.15
2022-08-14T17:21:46.838Z,29.97
2022-08-14T17:24:56.421Z,29.84
2022-08-14T17:27:10.373Z,29.78
2022-08-14T17:29:44.770Z,29.69
2022-08-14T17:32:29.711Z,29.55
2022-08-14T17:35:16.745Z,29.37
2022-08-14T17:37:55.628Z,29.17
2022-08-14T17:40:30.665Z,29.01
2022-08-14T17:45:50.582Z,28.55
2022-08-14T17:49:14.568Z,28.40
2022-08-14T17:51:14.628Z,28.21
2022-08-14T17:53:53.343Z,28.08
2022-08-14T17:56:31.744Z,27.97
2022-08-14T17:59:05.258Z,27.84
2022-08-14T18:01:37.831Z,27.72
2022-08-14T18:04:28.463Z,27.57
2022-08-14T18:07:08.897Z,27.43
2022-08-14T18:09:56.256Z,27.28
2022-08-14T18:12:36.686Z,27.15
2022-08-14T18:15:15.970Z,27.02
2022-08-14T18:17:53.228Z,26.92
2022-08-14T18:21:40.784Z,26.81
2022-08-14T18:23:14.491Z,26.71
2022-08-14T18:25:52.859Z,26.66
2022-08-14T18:28:51.022Z,26.62
2022-08-14T18:31:23.247Z,26.59
2022-08-14T18:33:58.919Z,26.56
2022-08-14T18:36:48.412Z,26.51
2022-08-14T18:39:25.555Z,26.47
2022-08-14T18:42:23.920Z,26.37
2022-08-14T18:44:52.789Z,26.32
2022-08-14T18:47:25.596Z,26.19
2022-08-14T18:50:00.702Z,26.13
2022-08-14T18:52:37.408Z,26.07
2022-08-14T18:55:16.059Z,26.02
2022-08-14T18:57:57.967Z,26.00
2022-08-14T19:00:32.787Z,25.91
2022-08-14T19:03:08.835Z,25.89
2022-08-14T19:05:48.907Z,25.78
2022-08-14T19:08:24.863Z,25.75
2022-08-14T19:11:04.168Z,25.67
2022-08-14T19:13:48.398Z,25.58
2022-08-14T19:16:26.105Z,25.51
2022-08-14T19:19:03.099Z,25.57
2022-08-14T19:21:38.397Z,25.60
2022-08-14T19:24:30.388Z,25.54
2022-08-14T19:27:19.319Z,25.58
2022-08-14T19:30:20.529Z,25.55
2022-08-14T19:32:56.143Z,25.51
2022-08-14T19:35:50.004Z,25.45
2022-08-14T19:38:44.434Z,25.43
2022-08-14T19:41:17.682Z,25.41
2022-08-14T19:43:50.905Z,25.30
2022-08-14T19:46:38.478Z,25.26
2022-08-14T19:49:21.358Z,25.20
2022-08-14T19:51:51.700Z,25.18
2022-08-14T19:54:28.792Z,25.15
2022-08-14T19:56:59.621Z,25.15
2022-08-14T19:59:36.843Z,25.19
2022-08-14T20:02:30.325Z,25.13
2022-08-14T20:05:03.776Z,25.09
2022-08-14T20:08:00.190Z,25.09
2022-08-14T20:11:06.553Z,25.04
2022-08-14T20:13:32.095Z,25.01
2022-08-14T20:16:12.492Z,24.97
2022-08-14T20:18:51.990Z,24.99
2022-08-14T20:21:24.848Z,25.00
2022-08-14T20:24:41.264Z,24.97
2022-08-14T20:27:44.283Z,24.92
2022-08-14T20:30:34.749Z,24.91
2022-08-14T20:33:11.000Z,24.92
2022-08-14T20:35:39.940Z,24.94
2022-08-14T20:38:31.082Z,24.94
2022-08-14T20:41:10.828Z,24.99
2022-08-14T20:44:00.960Z,24.97
2022-08-14T20:46:38.911Z,24.96
2022-08-14T20:49:09.386Z,24.96
2022-08-14T20:51:55.008Z,24.93
2022-08-14T20:54:34.123Z,24.93
2022-08-14T20:57:14.673Z,24.90
2022-08-14T20:59:53.595Z,24.89
2022-08-14T21:02:46.824Z,24.90
2022-08-14T21:05:22.038Z,24.92
2022-08-14T21:08:08.384Z,24.93
2022-08-14T21:10:55.022Z,24.95
2022-08-14T21:14:20.508Z,24.95
2022-08-14T21:16:34.387Z,25.01
2022-08-14T21:19:04.271Z,25.00
2022-08-14T21:21:40.559Z,24.99
2022-08-14T21:24:38.829Z,25.00
2022-08-14T21:27:13.127Z,24.96
2022-08-14T21:29:54.042Z,24.93
2022-08-14T21:32:47.003Z,24.90
2022-08-14T21:35:22.863Z,24.87
2022-08-14T21:37:53.376Z,24.82
2022-08-14T21:40:41.802Z,24.75
2022-08-14T21:43:18.084Z,24.71
2022-08-14T21:45:53.216Z,24.64
2022-08-14T21:48:29.431Z,24.57
2022-08-14T21:51:53.809Z,24.49
2022-08-14T21:53:58.991Z,24.45
2022-08-14T21:56:40.511Z,24.44
2022-08-14T21:59:17.658Z,24.41
2022-08-14T22:02:00.078Z,24.38
2022-08-14T22:04:40.496Z,24.36
2022-08-14T22:07:17.007Z,24.34
2022-08-14T22:09:55.109Z,24.27
2022-08-14T22:12:57.764Z,24.20
2022-08-14T22:15:17.925Z,24.11
2022-08-14T22:17:54.242Z,24.05
2022-08-14T22:20:28.053Z,24.02
2022-08-14T22:22:58.638Z,24.00
2022-08-14T22:25:33.236Z,23.98
2022-08-14T22:28:07.118Z,23.98
2022-08-14T22:30:38.930Z,23.92
2022-08-14T22:33:13.460Z,23.88
2022-08-14T22:35:42.960Z,23.89
2022-08-14T22:38:35.799Z,23.89
2022-08-14T22:41:25.464Z,23.91
2022-08-14T22:43:51.656Z,23.88
2022-08-14T22:46:21.908Z,23.83
2022-08-14T22:48:52.560Z,23.77
2022-08-14T22:51:23.500Z,23.71
2022-08-14T22:53:54.124Z,23.67
2022-08-14T22:56:29.171Z,23.61
2022-08-14T22:59:00.544Z,23.55
2022-08-14T23:01:55.584Z,23.51
2022-08-14T23:04:35.016Z,23.45
2022-08-14T23:07:22.871Z,23.40
2022-08-14T23:09:56.219Z,23.41
2022-08-14T23:12:31.703Z,23.36
2022-08-14T23:15:03.963Z,23.30
2022-08-14T23:17:40.400Z,23.26
2022-08-14T23:20:19.373Z,23.24
2022-08-14T23:22:51.748Z,23.16
2022-08-14T23:25:58.066Z,23.12
2022-08-14T23:28:34.940Z,23.02
2022-08-14T23:31:08.514Z,22.99
2022-08-14T23:33:45.845Z,23.00
2022-08-14T23:36:32.869Z,22.97
2022-08-14T23:39:10.398Z,22.95
2022-08-14T23:41:53.153Z,22.96
2022-08-14T23:44:24.058Z,22.91
2022-08-14T23:46:56.962Z,22.85
2022-08-14T23:49:55.378Z,22.71
2022-08-14T23:52:51.161Z,22.61
2022-08-14T23:55:11.448Z,22.36
2022-08-14T23:57:44.012Z,22.23
